Time;durP1;ratioP1;P1;durP2;ratioP2;P2;SDS_P1;SDS_P2;PMS_P1;PMS_P2;Temp;Humidity;BMP_temperature;BMP_pressure;BME280_temperature;BME280_humidity;BME280_pressure;Samples;Min_cycle;Max_cycle;Signal;HPM_P1;HPM_P2
2021/10/18 00:01:13;;;;;;;1.70;0.57;;;;;;;;;;5066829;28;20094;-83
2021/10/18 00:03:40;;;;;;;0.93;0.45;;;;;;;;;;5059469;28;20492;-84
2021/10/18 00:06:06;;;;;;;1.27;0.50;;;;;;;;;;5064755;28;20063;-83
2021/10/18 00:08:33;;;;;;;0.77;0.40;;;;;;;;;;5061839;28;20056;-84
2021/10/18 00:10:59;;;;;;;0.95;0.50;;;;;;;;;;5069513;28;20056;-85
2021/10/18 00:13:26;;;;;;;1.25;0.60;;;;;;;;;;5065696;28;20032;-85
2021/10/18 00:15:52;;;;;;;2.88;0.45;;;;;;;;;;5071496;28;20401;-83
2021/10/18 00:18:18;;;;;;;1.20;0.55;;;;;;;;;;5070413;28;20071;-84
2021/10/18 00:20:45;;;;;;;1.25;0.50;;;;;;;;;;5077596;28;20518;-80
2021/10/18 00:23:11;;;;;;;0.88;0.35;;;;;;;;;;5072071;28;20075;-85
2021/10/18 00:25:38;;;;;;;0.85;0.40;;;;;;;;;;5069453;28;20056;-84
2021/10/18 00:28:04;;;;;;;2.25;0.70;;;;;;;;;;5075201;28;20056;-84
2021/10/18 00:30:30;;;;;;;1.30;0.70;;;;;;;;;;5075689;28;20040;-84
2021/10/18 00:32:57;;;;;;;3.95;0.65;;;;;;;;;;5067816;28;20072;-85
2021/10/18 00:35:23;;;;;;;0.85;0.47;;;;;;;;;;5067776;28;20048;-85
2021/10/18 00:37:50;;;;;;;1.02;0.40;;;;;;;;;;5068204;28;20079;-85
2021/10/18 00:40:16;;;;;;;0.70;0.20;;;;;;;;;;5071551;28;20048;-85
2021/10/18 00:42:43;;;;;;;1.23;0.50;;;;;;;;;;5072067;28;20111;-85
2021/10/18 00:45:10;;;;;;;0.80;0.35;;;;;;;;;;5077602;28;20436;-86
2021/10/18 00:47:37;;;;;;;2.58;0.60;;;;;;;;;;5071538;28;20064;-85
2021/10/18 00:50:04;;;;;;;0.63;0.30;;;;;;;;;;5063326;28;20119;-86
2021/10/18 00:52:33;;;;;;;1.02;0.40;;;;;;;;;;5072060;28;20087;-84
2021/10/18 00:55:00;;;;;;;3.55;0.47;;;;;;;;;;5065143;28;20095;-84
2021/10/18 00:57:26;;;;;;;1.08;0.60;;;;;;;;;;5065706;28;20137;-82
2021/10/18 00:59:52;;;;;;;2.58;0.50;;;;;;;;;;5074687;28;20056;-83
2021/10/18 01:02:19;;;;;;;1.88;0.43;;;;;;;;;;5063327;28;20378;-82
2021/10/18 01:04:47;;;;;;;0.30;0.22;;;;;;;;;;5069432;28;20071;-81
2021/10/18 01:07:14;;;;;;;0.80;0.50;;;;;;;;;;5068458;28;20493;-83
2021/10/18 01:09:40;;;;;;;1.45;0.63;;;;;;;;;;5068958;28;20159;-82
2021/10/18 01:12:07;;;;;;;1.95;0.57;;;;;;;;;;5068962;28;20056;-83
2021/10/18 01:14:33;;;;;;;0.93;0.50;;;;;;;;;;5072298;28;20158;-83
2021/10/18 01:16:59;;;;;;;0.75;0.40;;;;;;;;;;5058420;28;20057;-83
2021/10/18 01:19:26;;;;;;;1.25;0.40;;;;;;;;;;5064516;28;20060;-83
2021/10/18 01:21:56;;;;;;;1.02;0.40;;;;;;;;;;5061817;28;20060;-82
2021/10/18 01:24:23;;;;;;;1.25;0.50;;;;;;;;;;5061810;28;20029;-83
2021/10/18 01:26:49;;;;;;;1.77;0.50;;;;;;;;;;5060616;28;20097;-82
2021/10/18 01:29:16;;;;;;;1.40;0.38;;;;;;;;;;5071250;28;20122;-83
2021/10/18 01:31:43;;;;;;;1.17;0.50;;;;;;;;;;5061609;28;20064;-83
2021/10/18 01:34:09;;;;;;;0.85;0.40;;;;;;;;;;5069637;28;20052;-82
2021/10/18 01:36:36;;;;;;;1.02;0.47;;;;;;;;;;5069065;28;20060;-82
2021/10/18 01:39:02;;;;;;;0.93;0.50;;;;;;;;;;5061385;28;20060;-82
2021/10/18 01:41:29;;;;;;;1.25;0.40;;;;;;;;;;5068206;28;20067;-83
2021/10/18 01:43:55;;;;;;;1.23;0.50;;;;;;;;;;5069297;28;20506;-83
2021/10/18 01:46:21;;;;;;;1.15;0.50;;;;;;;;;;5064305;28;20033;-84
2021/10/18 01:48:48;;;;;;;0.90;0.40;;;;;;;;;;5067164;28;20056;-83
2021/10/18 01:51:14;;;;;;;0.70;0.30;;;;;;;;;;5065288;28;20032;-83
2021/10/18 01:53:41;;;;;;;0.95;0.50;;;;;;;;;;5070163;28;20492;-83
2021/10/18 01:56:07;;;;;;;0.40;0.40;;;;;;;;;;5067778;28;20064;-83
2021/10/18 01:58:34;;;;;;;2.22;0.43;;;;;;;;;;5078796;28;20604;-85
2021/10/18 02:01:01;;;;;;;0.55;0.40;;;;;;;;;;5075098;28;20032;-83
2021/10/18 02:03:27;;;;;;;1.75;0.50;;;;;;;;;;5067810;28;20071;-83
2021/10/18 02:05:54;;;;;;;0.63;0.30;;;;;;;;;;5066763;28;20061;-83
2021/10/18 02:08:20;;;;;;;2.10;0.40;;;;;;;;;;5071428;28;20052;-83
2021/10/18 02:10:47;;;;;;;0.52;0.40;;;;;;;;;;5069613;28;20063;-83
2021/10/18 02:13:13;;;;;;;0.98;0.50;;;;;;;;;;5075233;28;20063;-83
2021/10/18 02:15:40;;;;;;;0.75;0.40;;;;;;;;;;5070308;28;20055;-81
2021/10/18 02:18:06;;;;;;;1.10;0.70;;;;;;;;;;5062624;28;20087;-81
2021/10/18 02:20:32;;;;;;;0.95;0.50;;;;;;;;;;5066677;28;20479;-81
2021/10/18 02:22:59;;;;;;;1.10;0.60;;;;;;;;;;5059051;28;20033;-81
2021/10/18 02:25:25;;;;;;;0.50;0.32;;;;;;;;;;5067862;28;20098;-81
2021/10/18 02:27:52;;;;;;;1.45;0.63;;;;;;;;;;5067756;28;20083;-81
2021/10/18 02:30:18;;;;;;;0.68;0.40;;;;;;;;;;5068131;28;20055;-82
2021/10/18 02:32:45;;;;;;;0.65;0.35;;;;;;;;;;5067866;28;20060;-82
2021/10/18 02:35:11;;;;;;;1.08;0.52;;;;;;;;;;5064445;28;20041;-81
2021/10/18 02:37:38;;;;;;;1.27;0.50;;;;;;;;;;5057471;28;20075;-83
2021/10/18 02:40:05;;;;;;;1.08;0.60;;;;;;;;;;5059538;28;20064;-84
2021/10/18 02:42:31;;;;;;;1.13;0.50;;;;;;;;;;5066272;28;20064;-83
2021/10/18 02:44:58;;;;;;;1.15;0.50;;;;;;;;;;5067307;28;20399;-83
2021/10/18 02:47:24;;;;;;;1.95;0.40;;;;;;;;;;5064111;28;20055;-83
2021/10/18 02:49:50;;;;;;;1.02;0.40;;;;;;;;;;5066420;28;20033;-83
2021/10/18 02:52:17;;;;;;;1.77;0.40;;;;;;;;;;5064718;28;20044;-83
2021/10/18 02:54:43;;;;;;;0.98;0.45;;;;;;;;;;5072489;28;20055;-83
2021/10/18 02:57:10;;;;;;;1.30;0.55;;;;;;;;;;5069516;28;20056;-83
2021/10/18 02:59:36;;;;;;;2.80;0.70;;;;;;;;;;5066969;28;20064;-83
2021/10/18 03:02:02;;;;;;;1.15;0.50;;;;;;;;;;5066406;28;20064;-82
2021/10/18 03:04:29;;;;;;;1.27;0.45;;;;;;;;;;5065597;28;20053;-82
2021/10/18 03:06:55;;;;;;;1.65;0.50;;;;;;;;;;5071949;28;20500;-83
2021/10/18 03:09:21;;;;;;;1.10;0.57;;;;;;;;;;5065427;28;20072;-83
2021/10/18 03:11:48;;;;;;;0.63;0.40;;;;;;;;;;5066518;28;20535;-83
2021/10/18 03:14:14;;;;;;;1.23;0.60;;;;;;;;;;5069494;28;20029;-83
2021/10/18 03:16:41;;;;;;;2.08;0.40;;;;;;;;;;5064097;28;20073;-85
2021/10/18 03:19:07;;;;;;;0.45;0.32;;;;;;;;;;5063393;28;20059;-83
2021/10/18 03:21:33;;;;;;;1.45;0.57;;;;;;;;;;5064629;28;20121;-83
2021/10/18 03:24:00;;;;;;;0.60;0.40;;;;;;;;;;5068216;28;20060;-83
2021/10/18 03:26:26;;;;;;;1.02;0.40;;;;;;;;;;5066141;28;20079;-83
2021/10/18 03:28:52;;;;;;;0.88;0.40;;;;;;;;;;5065844;28;20060;-83
2021/10/18 03:31:19;;;;;;;0.85;0.43;;;;;;;;;;5065882;28;20082;-83
2021/10/18 03:33:45;;;;;;;0.45;0.32;;;;;;;;;;5067988;28;20063;-80
2021/10/18 03:36:12;;;;;;;1.15;0.52;;;;;;;;;;5061770;28;21313;-83
2021/10/18 03:38:38;;;;;;;0.82;0.40;;;;;;;;;;5065537;28;20060;-83
2021/10/18 03:41:05;;;;;;;0.52;0.40;;;;;;;;;;5066339;28;20492;-82
2021/10/18 03:43:32;;;;;;;0.90;0.40;;;;;;;;;;5066785;28;20484;-83
2021/10/18 03:45:58;;;;;;;0.30;0.30;;;;;;;;;;5065870;28;20056;-83
2021/10/18 03:48:24;;;;;;;0.90;0.43;;;;;;;;;;5069807;28;20127;-83
2021/10/18 03:50:51;;;;;;;0.60;0.28;;;;;;;;;;5067940;28;20624;-83
2021/10/18 03:53:17;;;;;;;1.27;0.73;;;;;;;;;;5071654;28;20056;-84
2021/10/18 03:55:44;;;;;;;0.90;0.47;;;;;;;;;;5072898;28;20076;-84
2021/10/18 03:58:10;;;;;;;0.40;0.30;;;;;;;;;;5070688;28;20065;-84
2021/10/18 04:00:37;;;;;;;0.95;0.50;;;;;;;;;;5062981;28;20076;-84
2021/10/18 04:03:03;;;;;;;0.40;0.35;;;;;;;;;;5068567;28;20056;-87
2021/10/18 04:05:29;;;;;;;0.55;0.30;;;;;;;;;;5068663;28;20029;-85
2021/10/18 04:07:56;;;;;;;0.95;0.40;;;;;;;;;;5071041;28;20141;-85
2021/10/18 04:10:22;;;;;;;1.00;0.52;;;;;;;;;;5073489;28;20033;-86
2021/10/18 04:12:49;;;;;;;0.57;0.30;;;;;;;;;;5067858;28;20403;-87
2021/10/18 04:15:15;;;;;;;1.30;0.30;;;;;;;;;;5068484;28;20484;-83
2021/10/18 04:17:42;;;;;;;1.92;0.60;;;;;;;;;;5064472;28;20144;-81
2021/10/18 04:20:09;;;;;;;0.88;0.47;;;;;;;;;;5070125;28;20064;-81
2021/10/18 04:22:35;;;;;;;0.73;0.40;;;;;;;;;;5070721;28;20056;-82
2021/10/18 04:25:02;;;;;;;0.35;0.32;;;;;;;;;;5071051;28;20060;-82
2021/10/18 04:27:28;;;;;;;1.05;0.45;;;;;;;;;;5070294;28;20086;-86
2021/10/18 04:29:55;;;;;;;1.23;0.55;;;;;;;;;;5070663;28;20064;-84
2021/10/18 04:32:21;;;;;;;0.95;0.50;;;;;;;;;;5069710;28;20056;-84
2021/10/18 04:34:47;;;;;;;1.67;0.50;;;;;;;;;;5068802;28;20024;-83
2021/10/18 04:37:14;;;;;;;1.02;0.50;;;;;;;;;;5067221;28;20082;-84
2021/10/18 04:39:40;;;;;;;0.98;0.47;;;;;;;;;;5071993;28;20064;-83
2021/10/18 04:42:07;;;;;;;0.47;0.38;;;;;;;;;;5067031;28;20064;-83
2021/10/18 04:44:33;;;;;;;1.45;0.60;;;;;;;;;;5070523;28;20130;-82
2021/10/18 04:46:59;;;;;;;0.80;0.40;;;;;;;;;;5065403;28;20059;-83
2021/10/18 04:49:26;;;;;;;1.58;0.50;;;;;;;;;;5060195;28;20108;-87
2021/10/18 04:51:52;;;;;;;1.92;0.60;;;;;;;;;;5067317;28;20032;-88
2021/10/18 04:54:19;;;;;;;1.33;0.50;;;;;;;;;;5068351;28;20056;-89
2021/10/18 04:56:45;;;;;;;1.52;0.50;;;;;;;;;;5063116;28;20417;-90
2021/10/18 04:59:12;;;;;;;1.10;0.40;;;;;;;;;;5068114;28;21300;-83
2021/10/18 05:01:38;;;;;;;1.10;0.50;;;;;;;;;;5069760;28;20059;-83
2021/10/18 05:04:05;;;;;;;1.15;0.32;;;;;;;;;;5067342;28;20059;-84
2021/10/18 05:06:31;;;;;;;0.65;0.32;;;;;;;;;;5074688;28;20551;-84
2021/10/18 05:08:58;;;;;;;1.85;0.50;;;;;;;;;;5062591;28;20064;-83
2021/10/18 05:11:24;;;;;;;0.68;0.30;;;;;;;;;;5057313;28;20063;-84
2021/10/18 05:13:50;;;;;;;2.17;0.60;;;;;;;;;;5060675;28;20044;-83
2021/10/18 05:16:17;;;;;;;0.80;0.40;;;;;;;;;;5061720;28;20457;-85
2021/10/18 05:18:43;;;;;;;1.23;0.50;;;;;;;;;;5063008;28;20068;-85
2021/10/18 05:21:10;;;;;;;1.85;0.50;;;;;;;;;;5054981;28;20049;-84
2021/10/18 05:23:36;;;;;;;1.52;0.60;;;;;;;;;;5063769;28;20095;-84
2021/10/18 05:26:03;;;;;;;1.00;0.50;;;;;;;;;;5059479;28;20083;-84
2021/10/18 05:28:29;;;;;;;2.47;0.70;;;;;;;;;;5061312;28;20072;-84
2021/10/18 05:30:56;;;;;;;1.27;0.40;;;;;;;;;;5058595;28;20049;-86
2021/10/18 05:33:22;;;;;;;1.08;0.65;;;;;;;;;;5061079;28;20033;-87
2021/10/18 05:35:48;;;;;;;1.15;0.50;;;;;;;;;;5052418;28;20060;-87
2021/10/18 05:38:21;;;;;;;0.65;0.50;;;;;;;;;;5063715;28;20083;-86
2021/10/18 05:40:51;;;;;;;1.67;0.60;;;;;;;;;;5059969;28;20076;-86
2021/10/18 05:43:18;;;;;;;0.98;0.40;;;;;;;;;;5061126;28;20048;-86
2021/10/18 05:45:44;;;;;;;1.13;0.40;;;;;;;;;;5065705;28;20060;-87
2021/10/18 05:48:12;;;;;;;0.85;0.40;;;;;;;;;;5064908;28;20059;-86
2021/10/18 05:50:42;;;;;;;1.50;0.60;;;;;;;;;;5068998;28;20126;-86
2021/10/18 05:53:09;;;;;;;1.77;0.80;;;;;;;;;;5077981;28;20055;-87
2021/10/18 05:55:35;;;;;;;1.65;0.55;;;;;;;;;;5061688;28;20362;-86
2021/10/18 05:58:06;;;;;;;1.80;0.50;;;;;;;;;;5063096;28;20056;-86
2021/10/18 06:00:34;;;;;;;1.00;0.43;;;;;;;;;;5063567;28;20064;-86
2021/10/18 06:03:01;;;;;;;2.75;0.70;;;;;;;;;;5063824;28;20486;-83
2021/10/18 06:05:27;;;;;;;1.25;0.40;;;;;;;;;;5061864;28;20072;-84
2021/10/18 06:08:03;;;;;;;2.42;0.57;;;;;;;;;;5061967;28;20532;-85
2021/10/18 06:10:29;;;;;;;1.67;0.60;;;;;;;;;;5063472;28;20060;-84
2021/10/18 06:12:56;;;;;;;0.98;0.50;;;;;;;;;;5060288;28;20106;-83
2021/10/18 06:15:22;;;;;;;1.77;0.63;;;;;;;;;;5061055;28;20129;-83
2021/10/18 06:17:49;;;;;;;1.00;0.50;;;;;;;;;;5068933;28;20069;-82
2021/10/18 06:20:16;;;;;;;1.55;0.45;;;;;;;;;;5072300;28;20648;-83
2021/10/18 06:22:42;;;;;;;0.88;0.60;;;;;;;;;;5068501;28;20060;-85
2021/10/18 06:25:09;;;;;;;0.80;0.40;;;;;;;;;;5061333;28;20558;-84
2021/10/18 06:27:36;;;;;;;1.02;0.40;;;;;;;;;;5064416;28;20052;-83
2021/10/18 06:30:02;;;;;;;1.42;0.50;;;;;;;;;;5061173;28;20507;-84
2021/10/18 06:32:28;;;;;;;1.27;0.60;;;;;;;;;;5071222;28;20083;-84
2021/10/18 06:34:55;;;;;;;1.65;0.60;;;;;;;;;;5065252;28;20074;-85
2021/10/18 06:37:21;;;;;;;1.15;0.43;;;;;;;;;;5065382;28;20052;-85
2021/10/18 06:39:47;;;;;;;0.52;0.40;;;;;;;;;;5066849;28;20468;-86
2021/10/18 06:42:14;;;;;;;0.60;0.30;;;;;;;;;;5068482;28;20200;-86
2021/10/18 06:44:42;;;;;;;1.17;0.60;;;;;;;;;;5065989;28;20129;-84
2021/10/18 06:47:09;;;;;;;1.90;0.50;;;;;;;;;;5074067;28;20032;-84
2021/10/18 06:49:37;;;;;;;1.85;0.50;;;;;;;;;;5076538;28;20055;-85
2021/10/18 06:52:03;;;;;;;0.85;0.45;;;;;;;;;;5067924;28;20068;-84
2021/10/18 06:54:38;;;;;;;0.80;0.40;;;;;;;;;;5066246;28;20056;-85
2021/10/18 06:57:05;;;;;;;0.88;0.60;;;;;;;;;;5064248;28;20039;-85
2021/10/18 06:59:32;;;;;;;1.02;0.47;;;;;;;;;;5074442;28;20075;-85
2021/10/18 07:01:58;;;;;;;0.65;0.47;;;;;;;;;;5064825;28;20102;-86
2021/10/18 07:04:29;;;;;;;0.65;0.40;;;;;;;;;;5067258;28;20024;-85
2021/10/18 07:06:55;;;;;;;1.23;0.50;;;;;;;;;;5065850;28;20055;-85
2021/10/18 07:09:24;;;;;;;1.67;0.50;;;;;;;;;;5070827;28;20123;-85
2021/10/18 07:11:51;;;;;;;1.42;0.60;;;;;;;;;;5068781;28;20056;-85
2021/10/18 07:14:17;;;;;;;0.65;0.40;;;;;;;;;;5073741;28;20052;-85
2021/10/18 07:16:43;;;;;;;1.27;0.50;;;;;;;;;;5072545;28;20060;-85
2021/10/18 07:19:10;;;;;;;0.85;0.30;;;;;;;;;;5068486;28;20068;-84
2021/10/18 07:21:36;;;;;;;0.63;0.40;;;;;;;;;;5069212;28;20516;-83
2021/10/18 07:24:05;;;;;;;1.33;0.50;;;;;;;;;;5078926;28;20508;-85
2021/10/18 07:26:32;;;;;;;1.17;0.57;;;;;;;;;;5069097;28;20064;-84
2021/10/18 07:28:59;;;;;;;1.27;0.40;;;;;;;;;;5073339;28;20032;-84
2021/10/18 07:31:25;;;;;;;0.80;0.52;;;;;;;;;;5070273;28;20118;-85
2021/10/18 07:33:56;;;;;;;0.68;0.40;;;;;;;;;;5071047;28;20079;-84
2021/10/18 07:36:25;;;;;;;0.95;0.55;;;;;;;;;;5070775;28;20072;-84
2021/10/18 07:38:51;;;;;;;1.20;0.50;;;;;;;;;;5068034;28;20126;-85
2021/10/18 07:41:19;;;;;;;0.82;0.40;;;;;;;;;;5069648;28;20075;-85
2021/10/18 07:43:46;;;;;;;1.05;0.50;;;;;;;;;;5071351;28;20033;-85
2021/10/18 07:46:13;;;;;;;1.35;0.50;;;;;;;;;;5066141;28;22225;-83
2021/10/18 07:48:39;;;;;;;0.63;0.30;;;;;;;;;;5070452;28;20037;-85
2021/10/18 07:51:05;;;;;;;0.65;0.40;;;;;;;;;;5070718;28;20056;-85
2021/10/18 07:53:32;;;;;;;0.88;0.40;;;;;;;;;;5052848;28;20071;-85
2021/10/18 07:55:58;;;;;;;0.60;0.30;;;;;;;;;;5072577;28;20056;-84
2021/10/18 07:58:24;;;;;;;0.82;0.57;;;;;;;;;;5062607;28;20032;-85
2021/10/18 08:00:51;;;;;;;1.27;0.40;;;;;;;;;;5065235;28;20449;-85
2021/10/18 08:03:17;;;;;;;1.42;0.50;;;;;;;;;;5061021;28;20511;-84
2021/10/18 08:05:44;;;;;;;0.43;0.30;;;;;;;;;;5065512;28;20098;-84
2021/10/18 08:08:13;;;;;;;1.02;0.80;;;;;;;;;;5070402;28;20067;-84
2021/10/18 08:10:39;;;;;;;0.95;0.50;;;;;;;;;;5070719;28;20472;-85
2021/10/18 08:13:05;;;;;;;0.93;0.40;;;;;;;;;;5070239;28;20064;-85
2021/10/18 08:15:34;;;;;;;0.73;0.38;;;;;;;;;;5063201;28;20064;-85
2021/10/18 08:18:01;;;;;;;0.80;0.50;;;;;;;;;;5070967;28;20065;-85
2021/10/18 08:20:27;;;;;;;0.88;0.45;;;;;;;;;;5071713;28;20098;-85
2021/10/18 08:22:53;;;;;;;1.40;0.60;;;;;;;;;;5071073;28;20079;-85
2021/10/18 08:25:20;;;;;;;1.13;0.60;;;;;;;;;;5067890;28;20052;-84
2021/10/18 08:27:47;;;;;;;0.80;0.43;;;;;;;;;;5066248;28;20072;-84
2021/10/18 08:30:13;;;;;;;0.63;0.30;;;;;;;;;;5064213;28;20091;-85
2021/10/18 08:32:40;;;;;;;0.82;0.47;;;;;;;;;;5076838;28;20060;-84
2021/10/18 08:35:07;;;;;;;0.43;0.40;;;;;;;;;;5070911;28;20586;-84
2021/10/18 08:40:20;;;;;;;0.90;0.45;;;;;;;;;;5062985;28;20033;-84
2021/10/18 08:42:59;;;;;;;1.10;0.50;;;;;;;;;;5066011;28;20722;-85
2021/10/18 08:45:25;;;;;;;0.77;0.38;;;;;;;;;;5063558;28;20276;-85
2021/10/18 08:47:53;;;;;;;1.08;0.40;;;;;;;;;;5071568;28;20033;-84
2021/10/18 08:50:20;;;;;;;1.27;0.43;;;;;;;;;;5059037;28;20067;-85
2021/10/18 08:52:47;;;;;;;0.98;0.45;;;;;;;;;;5069810;28;20072;-85
2021/10/18 08:55:14;;;;;;;0.77;0.40;;;;;;;;;;5060373;28;22533;-85
2021/10/18 08:57:40;;;;;;;1.15;0.45;;;;;;;;;;5067673;28;20060;-85
2021/10/18 09:00:07;;;;;;;1.35;0.50;;;;;;;;;;5070148;28;20064;-84
2021/10/18 09:02:36;;;;;;;0.85;0.38;;;;;;;;;;5067965;28;20545;-86
2021/10/18 09:05:05;;;;;;;1.17;0.40;;;;;;;;;;5064941;28;20568;-85
2021/10/18 09:07:34;;;;;;;1.35;0.35;;;;;;;;;;5069544;28;20041;-84
2021/10/18 09:10:01;;;;;;;1.52;0.50;;;;;;;;;;5067939;28;20056;-85
2021/10/18 09:12:31;;;;;;;2.15;0.70;;;;;;;;;;5071627;28;20064;-85
2021/10/18 09:15:18;;;;;;;0.80;0.40;;;;;;;;;;5069664;28;20040;-85
2021/10/18 09:17:44;;;;;;;0.50;0.30;;;;;;;;;;5069090;28;20056;-86
2021/10/18 09:20:31;;;;;;;0.98;0.40;;;;;;;;;;5064519;28;20036;-87
2021/10/18 09:23:17;;;;;;;0.50;0.40;;;;;;;;;;5067009;28;20098;-85
2021/10/18 09:25:43;;;;;;;0.63;0.43;;;;;;;;;;5069898;28;20512;-85
2021/10/18 09:28:14;;;;;;;1.15;0.45;;;;;;;;;;5071277;28;20048;-86
2021/10/18 09:30:44;;;;;;;0.98;0.50;;;;;;;;;;5052603;28;20573;-84
2021/10/18 09:33:24;;;;;;;0.52;0.38;;;;;;;;;;5069864;28;20106;-86
2021/10/18 09:35:51;;;;;;;1.60;0.40;;;;;;;;;;5067495;28;20068;-85
2021/10/18 09:38:20;;;;;;;0.55;0.35;;;;;;;;;;5073494;28;20661;-86
2021/10/18 09:40:48;;;;;;;0.68;0.30;;;;;;;;;;5070581;28;20071;-85
2021/10/18 09:43:39;;;;;;;0.95;0.47;;;;;;;;;;5068666;28;20271;-86
2021/10/18 09:46:22;;;;;;;1.42;0.30;;;;;;;;;;5072547;28;20063;-86
2021/10/18 10:53:34;;;;;;;1.20;0.50;;;;;;;;;;5072184;28;20295;-85
2021/10/18 10:56:16;;;;;;;1.17;0.52;;;;;;;;;;5078907;28;20029;-84
2021/10/18 10:58:53;;;;;;;2.33;1.00;;;;;;;;;;5070900;28;20056;-85
2021/10/18 11:01:38;;;;;;;3.00;1.35;;;;;;;;;;5077115;28;20097;-85
2021/10/18 11:04:23;;;;;;;4.20;2.15;;;;;;;;;;5081073;28;20074;-83
2021/10/18 11:06:49;;;;;;;5.15;2.47;;;;;;;;;;5080406;28;20025;-84
2021/10/18 11:09:35;;;;;;;4.55;2.08;;;;;;;;;;5074634;28;20033;-85
2021/10/18 11:12:01;;;;;;;6.13;2.35;;;;;;;;;;5066503;28;20029;-85
2021/10/18 11:14:28;;;;;;;4.80;2.42;;;;;;;;;;5060915;28;20037;-85
2021/10/18 11:16:54;;;;;;;5.22;2.35;;;;;;;;;;5065565;28;20102;-85
2021/10/18 11:19:24;;;;;;;4.70;2.63;;;;;;;;;;5063098;28;20127;-85
2021/10/18 11:21:57;;;;;;;5.65;2.70;;;;;;;;;;5059896;28;20067;-85
2021/10/18 11:24:23;;;;;;;4.22;2.25;;;;;;;;;;5058064;28;20064;-86
2021/10/18 11:26:54;;;;;;;5.32;2.78;;;;;;;;;;5062142;28;20735;-86
2021/10/18 11:29:29;;;;;;;5.85;2.80;;;;;;;;;;5066851;28;20154;-87
2021/10/18 11:31:55;;;;;;;5.28;2.42;;;;;;;;;;5062370;28;20033;-86
2021/10/18 11:34:22;;;;;;;4.78;2.42;;;;;;;;;;5066408;28;20032;-86
2021/10/18 11:36:49;;;;;;;4.88;2.55;;;;;;;;;;5067408;28;20052;-84
2021/10/18 11:39:17;;;;;;;4.82;2.20;;;;;;;;;;5062648;28;20060;-86
2021/10/18 11:41:59;;;;;;;3.60;2.20;;;;;;;;;;5061321;28;20096;-88
2021/10/18 11:44:54;;;;;;;3.88;2.20;;;;;;;;;;5058293;28;20082;-88
2021/10/18 11:47:23;;;;;;;4.22;2.10;;;;;;;;;;5053384;28;20120;-88
2021/10/18 11:50:08;;;;;;;4.18;2.03;;;;;;;;;;5070100;28;20086;-87
2021/10/18 11:52:39;;;;;;;3.20;1.73;;;;;;;;;;5055527;28;20041;-88
2021/10/18 11:55:12;;;;;;;4.70;2.10;;;;;;;;;;5067272;28;20056;-88
2021/10/18 11:57:41;;;;;;;4.50;2.08;;;;;;;;;;5066455;28;20056;-88
2021/10/18 12:00:13;;;;;;;5.35;2.00;;;;;;;;;;5064910;28;20125;-88
2021/10/18 12:02:39;;;;;;;;;;;;;;;;;;5071310;28;20082;-88
2021/10/18 12:05:06;;;;;;;3.53;1.55;;;;;;;;;;5071514;28;19913;-88
2021/10/18 12:07:43;;;;;;;3.20;1.67;;;;;;;;;;5062211;28;20052;-88
2021/10/18 12:10:21;;;;;;;3.90;1.95;;;;;;;;;;5068252;28;20059;-87
2021/10/18 12:13:06;;;;;;;2.95;1.67;;;;;;;;;;5067480;28;20105;-86
2021/10/18 12:15:33;;;;;;;4.28;1.85;;;;;;;;;;5060976;28;21116;-87
2021/10/18 12:18:00;;;;;;;4.32;2.30;;;;;;;;;;5064918;28;20086;-87
2021/10/18 12:20:26;;;;;;;3.65;1.67;;;;;;;;;;5064950;28;20204;-87
2021/10/18 12:23:04;;;;;;;2.55;1.60;;;;;;;;;;5067604;28;20049;-87
2021/10/18 12:25:32;;;;;;;4.63;1.80;;;;;;;;;;5066336;28;20106;-87
2021/10/18 12:28:00;;;;;;;3.88;1.90;;;;;;;;;;5069385;28;20533;-87
2021/10/18 12:30:36;;;;;;;3.63;1.67;;;;;;;;;;5069824;28;20067;-86
2021/10/18 12:33:10;;;;;;;4.15;2.00;;;;;;;;;;5070452;28;20113;-86
2021/10/18 12:35:36;;;;;;;4.03;1.50;;;;;;;;;;5066140;28;20048;-88
2021/10/18 12:38:10;;;;;;;3.22;1.50;;;;;;;;;;5069777;28;20458;-86
2021/10/18 12:40:36;;;;;;;3.15;1.58;;;;;;;;;;5068854;28;20589;-86
2021/10/18 12:43:03;;;;;;;3.67;1.60;;;;;;;;;;5069664;28;20090;-87
2021/10/18 12:45:39;;;;;;;3.72;1.50;;;;;;;;;;5070092;28;20120;-86
2021/10/18 12:48:11;;;;;;;4.25;2.10;;;;;;;;;;5071494;28;20029;-87
2021/10/18 12:50:40;;;;;;;3.17;1.60;;;;;;;;;;5071313;28;20067;-87
2021/10/18 12:53:12;;;;;;;4.05;1.85;;;;;;;;;;5070138;28;20675;-87
2021/10/18 12:55:39;;;;;;;3.65;1.65;;;;;;;;;;5069466;28;20110;-87
2021/10/18 12:58:08;;;;;;;3.28;1.65;;;;;;;;;;5070627;28;20028;-87
2021/10/18 13:00:36;;;;;;;3.30;1.50;;;;;;;;;;5070895;28;20045;-86
2021/10/18 13:03:08;;;;;;;2.92;1.60;;;;;;;;;;5069373;28;20090;-86
2021/10/18 13:05:38;;;;;;;3.55;1.70;;;;;;;;;;5068039;28;20400;-86
2021/10/18 13:08:05;;;;;;;3.45;1.77;;;;;;;;;;5070191;28;20024;-87
2021/10/18 13:10:32;;;;;;;3.33;1.70;;;;;;;;;;5054251;28;20094;-86
2021/10/18 13:13:00;;;;;;;3.30;1.50;;;;;;;;;;5067719;28;20026;-86
2021/10/18 13:15:26;;;;;;;3.25;1.40;;;;;;;;;;5065777;28;20106;-86
2021/10/18 13:17:56;;;;;;;3.83;1.58;;;;;;;;;;5045886;28;20451;-86
2021/10/18 13:20:40;;;;;;;2.75;1.35;;;;;;;;;;5079573;28;20037;-87
2021/10/18 13:23:08;;;;;;;3.30;1.52;;;;;;;;;;5068561;28;20037;-88
2021/10/18 13:25:36;;;;;;;3.28;1.48;;;;;;;;;;5069610;28;20033;-89
2021/10/18 13:28:04;;;;;;;3.15;1.45;;;;;;;;;;5069272;28;20117;-88
2021/10/18 13:30:31;;;;;;;3.47;1.42;;;;;;;;;;5067791;28;20041;-89
2021/10/18 13:32:59;;;;;;;2.85;1.50;;;;;;;;;;5072126;28;20064;-88
2021/10/18 13:35:26;;;;;;;3.15;1.40;;;;;;;;;;5062456;28;20029;-87
2021/10/18 13:37:53;;;;;;;3.70;1.30;;;;;;;;;;5061089;28;20052;-87
2021/10/18 13:40:21;;;;;;;3.60;1.30;;;;;;;;;;5065785;28;20456;-87
2021/10/18 13:42:48;;;;;;;2.30;1.20;;;;;;;;;;5070830;28;20039;-87
2021/10/18 13:45:16;;;;;;;2.83;1.30;;;;;;;;;;5064483;28;20374;-87
2021/10/18 13:47:43;;;;;;;3.85;1.58;;;;;;;;;;5069305;28;20033;-87
2021/10/18 13:50:09;;;;;;;2.53;1.20;;;;;;;;;;5069649;28;20036;-88
2021/10/18 13:52:36;;;;;;;2.03;1.10;;;;;;;;;;5063190;28;20045;-87
2021/10/18 13:55:04;;;;;;;3.53;1.40;;;;;;;;;;5073301;28;20043;-87
2021/10/18 13:57:33;;;;;;;2.10;1.17;;;;;;;;;;5073109;28;20034;-87
2021/10/18 13:59:59;;;;;;;1.85;1.05;;;;;;;;;;5067505;28;20074;-88
2021/10/18 14:02:26;;;;;;;3.20;1.23;;;;;;;;;;5071010;28;20036;-87
2021/10/18 14:04:52;;;;;;;2.78;1.00;;;;;;;;;;5071179;28;20492;-84
2021/10/18 14:07:19;;;;;;;2.50;1.20;;;;;;;;;;5070219;28;20056;-84
2021/10/18 14:09:46;;;;;;;3.00;1.40;;;;;;;;;;5072769;28;20062;-84
2021/10/18 14:12:13;;;;;;;2.95;1.23;;;;;;;;;;5069551;28;20051;-84
2021/10/18 14:14:39;;;;;;;3.15;1.20;;;;;;;;;;5063812;28;20037;-83
2021/10/18 14:17:06;;;;;;;1.85;0.80;;;;;;;;;;5067389;28;20060;-84
2021/10/18 14:19:32;;;;;;;2.22;1.20;;;;;;;;;;5075907;28;20094;-84
2021/10/18 14:21:59;;;;;;;2.88;1.20;;;;;;;;;;5075388;28;20020;-85
2021/10/18 14:24:26;;;;;;;2.08;1.10;;;;;;;;;;5067780;28;20437;-85
2021/10/18 14:26:53;;;;;;;1.73;1.00;;;;;;;;;;5068011;28;20052;-84
2021/10/18 14:29:19;;;;;;;3.08;1.13;;;;;;;;;;5072960;28;20060;-82
2021/10/18 14:31:46;;;;;;;2.60;1.17;;;;;;;;;;5067568;28;20052;-86
2021/10/18 14:34:12;;;;;;;2.35;0.93;;;;;;;;;;5064536;28;20425;-86
2021/10/18 14:36:40;;;;;;;2.50;1.10;;;;;;;;;;5070890;28;20417;-85
2021/10/18 14:39:07;;;;;;;3.10;1.17;;;;;;;;;;5067960;28;20057;-85
2021/10/18 14:41:33;;;;;;;2.70;1.10;;;;;;;;;;5068904;28;20043;-86
2021/10/18 14:44:02;;;;;;;1.70;0.85;;;;;;;;;;5067771;28;20068;-87
2021/10/18 14:46:29;;;;;;;2.55;1.10;;;;;;;;;;5065027;28;20072;-87
2021/10/18 14:48:55;;;;;;;2.17;0.80;;;;;;;;;;5063856;28;20535;-87
2021/10/18 14:51:23;;;;;;;2.97;1.15;;;;;;;;;;5065170;28;20056;-86
2021/10/18 14:53:54;;;;;;;2.95;1.00;;;;;;;;;;5064650;28;20046;-84
2021/10/18 14:56:28;;;;;;;2.35;0.82;;;;;;;;;;5071337;28;20032;-87
2021/10/18 14:58:55;;;;;;;2.17;0.80;;;;;;;;;;5066290;28;20064;-85
2021/10/18 15:01:22;;;;;;;2.70;0.95;;;;;;;;;;5062989;28;20056;-86
2021/10/18 15:03:49;;;;;;;7.50;1.13;;;;;;;;;;5061753;28;20117;-85
2021/10/18 15:06:15;;;;;;;2.72;1.00;;;;;;;;;;5066768;28;21443;-85
2021/10/18 15:08:42;;;;;;;2.70;0.80;;;;;;;;;;5069780;28;20021;-86
2021/10/18 15:11:09;;;;;;;2.30;0.88;;;;;;;;;;5070814;28;20035;-86
2021/10/18 15:13:37;;;;;;;1.65;0.90;;;;;;;;;;5069902;28;20060;-86
2021/10/18 15:16:03;;;;;;;2.17;1.10;;;;;;;;;;5066826;28;20040;-87
2021/10/18 15:18:30;;;;;;;1.67;0.82;;;;;;;;;;5070084;28;20072;-87
2021/10/18 15:20:57;;;;;;;2.20;0.93;;;;;;;;;;5065913;28;20625;-86
2021/10/18 15:23:24;;;;;;;1.95;0.70;;;;;;;;;;5070119;28;20071;-87
2021/10/18 15:25:50;;;;;;;2.20;0.90;;;;;;;;;;5070798;28;20033;-86
2021/10/18 15:28:17;;;;;;;2.13;0.98;;;;;;;;;;5075967;28;20050;-87
2021/10/18 15:30:43;;;;;;;2.17;0.90;;;;;;;;;;5071823;28;20533;-86
2021/10/18 15:33:10;;;;;;;1.88;0.90;;;;;;;;;;5077157;28;20044;-86
2021/10/18 15:35:36;;;;;;;2.25;0.77;;;;;;;;;;5079821;28;20033;-86
2021/10/18 15:38:06;;;;;;;2.03;0.90;;;;;;;;;;5085845;28;20044;-86
2021/10/18 15:40:32;;;;;;;2.05;0.90;;;;;;;;;;5079240;28;20033;-86
2021/10/18 15:42:59;;;;;;;1.35;0.80;;;;;;;;;;5079662;28;20039;-86
2021/10/18 15:45:26;;;;;;;1.50;0.63;;;;;;;;;;5079496;28;20028;-86
2021/10/18 15:47:56;;;;;;;1.83;0.90;;;;;;;;;;5083069;28;20309;-87
2021/10/18 15:50:23;;;;;;;1.13;0.70;;;;;;;;;;5084563;28;20029;-86
2021/10/18 15:52:49;;;;;;;1.67;0.70;;;;;;;;;;5089408;28;20130;-82
2021/10/18 15:55:16;;;;;;;1.52;0.70;;;;;;;;;;5101757;28;20055;-86